createdAt,value
2023-02-16T00:00:17.250Z,99740.41
2023-02-16T00:03:32.512Z,99740.52
2023-02-16T00:06:46.062Z,99738.19
2023-02-16T00:09:59.761Z,99734.28
2023-02-16T00:13:37.149Z,99734.28
2023-02-16T00:16:50.725Z,99735.03
2023-02-16T00:20:06.739Z,99734.39
2023-02-16T00:23:20.770Z,99729.91
2023-02-16T00:26:35.651Z,99729.91
2023-02-16T00:29:49.301Z,99723.19
2023-02-16T00:33:02.892Z,99714.06
2023-02-16T00:36:18.213Z,99714.91
2023-02-16T00:39:32.717Z,99712.41
2023-02-16T00:42:49.075Z,99708.40
2023-02-16T00:46:03.243Z,99704.50
2023-02-16T00:49:20.294Z,99709.72
2023-02-16T00:52:38.909Z,99701.94
2023-02-16T00:55:52.568Z,99696.25
2023-02-16T00:59:08.246Z,99695.98
2023-02-16T01:02:23.784Z,99695.55
2023-02-16T01:05:37.274Z,99687.05
2023-02-16T01:09:04.726Z,99684.61
2023-02-16T01:12:22.558Z,99675.20
2023-02-16T01:15:36.486Z,99676.13
2023-02-16T01:18:50.338Z,99660.38
2023-02-16T01:22:06.442Z,99664.85
2023-02-16T01:25:20.920Z,99660.12
2023-02-16T01:28:34.592Z,99657.51
2023-02-16T01:31:48.209Z,99665.67
2023-02-16T01:35:01.941Z,99657.02
2023-02-16T01:38:20.778Z,99646.52
2023-02-16T01:41:43.111Z,99636.91
2023-02-16T01:44:58.979Z,99640.91
2023-02-16T01:48:16.928Z,99637.55
2023-02-16T01:51:32.972Z,99632.69
2023-02-16T01:54:50.309Z,99633.80
2023-02-16T01:58:07.355Z,99627.54
2023-02-16T02:01:49.822Z,99627.86
2023-02-16T02:05:19.658Z,99628.96
2023-02-16T02:08:36.287Z,99631.14
2023-02-16T02:11:53.738Z,99626.41
2023-02-16T02:15:09.787Z,99615.59
2023-02-16T02:18:23.578Z,99610.75
2023-02-16T02:22:04.548Z,99615.33
2023-02-16T02:25:43.239Z,99617.00
2023-02-16T02:29:01.409Z,99606.57
2023-02-16T02:32:20.878Z,99609.18
2023-02-16T02:35:41.389Z,99611.92
2023-02-16T02:39:01.589Z,99612.95
2023-02-16T02:42:19.660Z,99625.03
2023-02-16T02:45:37.674Z,99621.14
2023-02-16T02:48:51.402Z,99609.85
2023-02-16T02:52:05.567Z,99615.34
2023-02-16T02:55:48.353Z,99618.61
2023-02-16T02:59:19.312Z,99615.16
2023-02-16T03:02:33.613Z,99609.94
2023-02-16T03:05:51.213Z,99617.03
2023-02-16T03:09:09.014Z,99613.67
2023-02-16T03:12:37.100Z,99620.17
2023-02-16T03:15:54.094Z,99626.05
2023-02-16T03:19:23.710Z,99617.56
2023-02-16T03:22:53.124Z,99630.23
2023-02-16T03:26:21.268Z,99628.28
2023-02-16T03:29:35.580Z,99627.46
2023-02-16T03:32:49.320Z,99624.75
2023-02-16T03:36:03.831Z,99631.45
2023-02-16T03:39:19.730Z,99635.58
2023-02-16T03:42:33.327Z,99628.95
2023-02-16T03:45:49.663Z,99618.97
2023-02-16T03:49:03.290Z,99621.29
2023-02-16T03:52:16.954Z,99614.79
2023-02-16T03:55:30.485Z,99616.73
2023-02-16T03:58:46.802Z,99621.59
2023-02-16T04:02:09.550Z,99613.27
2023-02-16T04:05:23.352Z,99607.33
2023-02-16T04:08:37.151Z,99616.08
2023-02-16T04:12:04.801Z,99620.27
2023-02-16T04:15:20.707Z,99617.56
2023-02-16T04:18:34.712Z,99617.76
2023-02-16T04:21:48.309Z,99620.37
2023-02-16T04:25:01.905Z,99619.45
2023-02-16T04:28:15.474Z,99614.23
2023-02-16T04:31:29.150Z,99611.63
2023-02-16T04:34:42.784Z,99607.70
2023-02-16T04:37:56.457Z,99603.05
2023-02-16T04:41:10.493Z,99605.39
2023-02-16T04:44:25.832Z,99601.00
2023-02-16T04:47:39.480Z,99594.09
2023-02-16T04:50:53.219Z,99599.14
2023-02-16T04:54:06.800Z,99591.49
2023-02-16T04:57:21.982Z,99600.83
2023-02-16T05:00:36.604Z,99599.88
2023-02-16T05:03:50.360Z,99592.91
2023-02-16T05:07:04.484Z,99597.20
2023-02-16T05:10:18.364Z,99598.13
2023-02-16T05:13:46.425Z,99599.61
2023-02-16T05:16:59.959Z,99593.83
2023-02-16T05:20:15.808Z,99589.38
2023-02-16T05:23:29.760Z,99591.03
2023-02-16T05:26:44.506Z,99589.28
2023-02-16T05:29:58.743Z,99584.06
2023-02-16T05:33:13.851Z,99587.80
2023-02-16T05:36:28.101Z,99585.25
2023-02-16T05:39:42.188Z,99590.20
2023-02-16T05:42:59.405Z,99584.16
2023-02-16T05:46:16.218Z,99594.76
2023-02-16T05:49:30.449Z,99596.70
2023-02-16T05:52:44.046Z,99594.86
2023-02-16T05:55:57.762Z,99602.48
2023-02-16T05:59:11.438Z,99602.41
2023-02-16T06:02:25.046Z,99596.17
2023-02-16T06:05:39.048Z,99600.16
2023-02-16T06:08:52.590Z,99614.78
2023-02-16T06:12:06.348Z,99601.67
2023-02-16T06:15:20.056Z,99599.14
2023-02-16T06:18:34.035Z,99602.78
2023-02-16T06:21:48.140Z,99603.62
2023-02-16T06:25:01.819Z,99610.20
2023-02-16T06:28:15.419Z,99614.94
2023-02-16T06:31:30.102Z,99611.84
2023-02-16T06:34:44.187Z,99605.59
2023-02-16T06:37:59.815Z,99605.95
2023-02-16T06:41:14.090Z,99602.17
2023-02-16T06:44:28.088Z,99604.27
2023-02-16T06:47:42.015Z,99607.98
2023-02-16T06:50:58.257Z,99609.59
2023-02-16T06:54:12.129Z,99620.77
2023-02-16T06:57:26.066Z,99615.53
2023-02-16T07:00:40.006Z,99618.81
2023-02-16T07:03:53.844Z,99626.88
2023-02-16T07:07:07.474Z,99633.52
2023-02-16T07:10:24.266Z,99628.45
2023-02-16T07:13:41.111Z,99636.64
2023-02-16T07:16:54.892Z,99635.16
2023-02-16T07:20:09.484Z,99634.76
2023-02-16T07:23:27.032Z,99631.49
2023-02-16T07:26:43.272Z,99634.73
2023-02-16T07:29:58.131Z,99637.97
2023-02-16T07:33:14.758Z,99639.44
2023-02-16T07:36:30.439Z,99642.64
2023-02-16T07:39:44.173Z,99648.58
2023-02-16T07:43:06.330Z,99647.14
2023-02-16T07:46:20.044Z,99642.72
2023-02-16T07:49:33.787Z,99638.67
2023-02-16T07:52:47.480Z,99636.09
2023-02-16T07:56:01.986Z,99644.92
2023-02-16T07:59:15.890Z,99646.03
2023-02-16T08:02:30.237Z,99640.80
2023-02-16T08:05:45.480Z,99637.66
2023-02-16T08:08:59.270Z,99642.41
2023-02-16T08:12:18.009Z,99638.95
2023-02-16T08:15:31.663Z,99640.45
2023-02-16T08:18:45.787Z,99645.42
2023-02-16T08:22:00.201Z,99650.36
2023-02-16T08:25:16.662Z,99640.86
2023-02-16T08:28:30.272Z,99642.41
2023-02-16T08:31:44.812Z,99645.72
2023-02-16T08:34:58.774Z,99642.13
2023-02-16T08:38:12.507Z,99636.08
2023-02-16T08:41:28.243Z,99632.36
2023-02-16T08:44:42.767Z,99625.66
2023-02-16T08:47:57.076Z,99626.55
2023-02-16T08:51:11.645Z,99622.05
2023-02-16T08:54:27.948Z,99627.59
2023-02-16T08:57:42.538Z,99626.38
2023-02-16T09:00:56.662Z,99618.42
2023-02-16T09:04:10.427Z,99622.28
2023-02-16T09:07:24.445Z,99621.13
2023-02-16T09:10:38.067Z,99612.58
2023-02-16T09:13:55.076Z,99617.77
2023-02-16T09:17:24.832Z,99612.00
2023-02-16T09:20:40.459Z,99612.83
2023-02-16T09:23:56.382Z,99617.44
2023-02-16T09:27:10.076Z,99614.45
2023-02-16T09:30:24.642Z,99613.45
2023-02-16T09:33:39.356Z,99613.67
2023-02-16T09:36:53.777Z,99603.28
2023-02-16T09:40:08.081Z,99602.30
2023-02-16T09:43:27.264Z,99593.03
2023-02-16T09:46:41.684Z,99591.11
2023-02-16T09:49:57.591Z,99599.53
2023-02-16T09:53:18.277Z,99593.36
2023-02-16T09:56:36.928Z,99594.41
2023-02-16T09:59:56.757Z,99598.50
2023-02-16T10:03:15.876Z,99605.45
2023-02-16T10:06:58.048Z,99604.52
2023-02-16T10:10:13.203Z,99605.39
2023-02-16T10:13:32.695Z,99604.59
2023-02-16T10:16:48.539Z,99608.61
2023-02-16T10:20:07.675Z,99606.93
2023-02-16T10:23:27.665Z,99596.13
2023-02-16T10:26:46.989Z,99609.45
2023-02-16T10:30:02.007Z,99610.02
2023-02-16T10:33:23.605Z,99617.78
2023-02-16T10:36:47.542Z,99610.27
2023-02-16T10:40:07.428Z,99609.56
2023-02-16T10:43:24.670Z,99608.16
2023-02-16T10:46:41.948Z,99599.89
2023-02-16T10:50:02.671Z,99602.69
2023-02-16T10:53:21.510Z,99598.64
2023-02-16T10:56:53.185Z,99600.98
2023-02-16T11:00:12.264Z,99588.41
2023-02-16T11:03:29.885Z,99585.30
2023-02-16T11:06:44.630Z,99572.95
2023-02-16T11:10:01.899Z,99569.78
2023-02-16T11:13:25.805Z,99558.75
2023-02-16T11:16:40.012Z,99563.80
2023-02-16T11:20:01.844Z,99563.22
2023-02-16T11:23:25.227Z,99548.42
2023-02-16T11:26:41.267Z,99549.53
2023-02-16T11:29:55.696Z,99543.17
2023-02-16T11:33:13.116Z,99534.95
2023-02-16T11:36:35.350Z,99533.28
2023-02-16T11:39:55.294Z,99528.41
2023-02-16T11:43:09.802Z,99513.66
2023-02-16T11:46:26.056Z,99511.97
2023-02-16T11:49:42.352Z,99513.59
2023-02-16T11:52:58.124Z,99507.42
2023-02-16T11:56:26.170Z,99499.48
2023-02-16T11:59:43.630Z,99504.42
2023-02-16T12:03:17.080Z,99496.53
2023-02-16T12:06:37.386Z,99492.00
2023-02-16T12:09:55.788Z,99481.36
2023-02-16T12:13:13.123Z,99483.94
2023-02-16T12:16:33.016Z,99473.73
2023-02-16T12:19:50.654Z,99471.81
2023-02-16T12:23:08.870Z,99465.18
2023-02-16T12:26:45.365Z,99465.02
2023-02-16T12:30:04.169Z,99469.58
2023-02-16T12:33:27.510Z,99465.95
2023-02-16T12:36:58.615Z,99464.53
2023-02-16T12:40:17.970Z,99455.38
2023-02-16T12:43:42.728Z,99444.96
2023-02-16T12:47:22.697Z,99441.55
2023-02-16T12:50:39.028Z,99431.82
2023-02-16T12:53:58.886Z,99431.82
2023-02-16T12:57:17.552Z,99438.91
2023-02-16T13:00:38.098Z,99427.19
2023-02-16T13:04:03.252Z,99423.89
2023-02-16T13:07:24.148Z,99420.63
2023-02-16T13:10:42.092Z,99416.84
2023-02-16T13:14:02.445Z,99408.74
2023-02-16T13:17:19.753Z,99407.93
2023-02-16T13:20:34.310Z,99407.93
2023-02-16T13:23:58.476Z,99393.86
2023-02-16T13:27:23.177Z,99402.67
2023-02-16T13:30:55.005Z,99407.31
2023-02-16T13:34:24.974Z,99398.75
2023-02-16T13:41:21.229Z,99404.56
2023-02-16T13:44:40.098Z,99396.63
2023-02-16T13:47:54.697Z,99395.48
2023-02-16T13:51:25.222Z,99382.75
2023-02-16T13:58:34.441Z,99392.68
2023-02-16T14:01:49.409Z,99383.86
2023-02-16T14:05:13.827Z,99385.66
2023-02-16T14:08:37.052Z,99385.66
2023-02-16T14:12:12.172Z,99387.78
2023-02-16T14:15:27.410Z,99383.64
2023-02-16T14:18:46.500Z,99388.47
2023-02-16T14:22:00.985Z,99388.63
2023-02-16T14:25:49.596Z,99385.79
2023-02-16T14:29:20.968Z,99389.70
2023-02-16T14:32:39.334Z,99382.91
2023-02-16T14:35:56.317Z,99386.41
2023-02-16T14:39:13.175Z,99386.86
2023-02-16T14:42:33.975Z,99389.80
2023-02-16T14:46:27.558Z,99390.28
2023-02-16T14:50:02.523Z,99385.97
2023-02-16T14:54:05.905Z,99380.84
2023-02-16T14:57:24.140Z,99385.05
2023-02-16T15:00:42.602Z,99367.16
2023-02-16T15:03:59.036Z,99370.58
2023-02-16T15:07:12.718Z,99367.24
2023-02-16T15:10:30.128Z,99360.61
2023-02-16T15:13:43.938Z,99355.41
2023-02-16T15:16:58.012Z,99356.67
2023-02-16T15:20:18.653Z,99358.81
2023-02-16T15:23:35.072Z,99356.30
2023-02-16T15:26:52.521Z,99358.36
2023-02-16T15:30:27.265Z,99364.39
2023-02-16T15:33:44.036Z,99363.02
2023-02-16T15:36:57.921Z,99369.42
2023-02-16T15:40:25.870Z,99367.22
2023-02-16T15:43:42.444Z,99374.48
2023-02-16T15:46:56.079Z,99369.64
2023-02-16T15:50:17.992Z,99376.05
2023-02-16T15:56:50.602Z,99374.83
2023-02-16T16:00:07.947Z,99382.82
2023-02-16T16:03:28.289Z,99376.47
2023-02-16T16:06:48.889Z,99369.09
2023-02-16T16:10:03.983Z,99372.16
2023-02-16T16:13:22.763Z,99374.25
2023-02-16T16:16:37.853Z,99369.80
2023-02-16T16:19:55.287Z,99361.06
2023-02-16T16:23:11.375Z,99372.05
2023-02-16T16:26:27.017Z,99373.72
2023-02-16T16:29:44.898Z,99363.59
2023-02-16T16:33:12.519Z,99369.45
2023-02-16T16:36:27.098Z,99369.60
2023-02-16T16:39:41.783Z,99363.20
2023-02-16T16:43:11.352Z,99365.22
2023-02-16T16:46:31.213Z,99364.37
2023-02-16T16:49:52.773Z,99370.61
2023-02-16T16:53:06.417Z,99372.86
2023-02-16T16:56:21.325Z,99383.02
2023-02-16T16:59:35.122Z,99377.89
2023-02-16T17:02:49.818Z,99379.28
2023-02-16T17:06:04.134Z,99380.13
2023-02-16T17:09:30.677Z,99384.56
2023-02-16T17:12:44.634Z,99378.34
2023-02-16T17:16:01.184Z,99374.73
2023-02-16T17:19:15.202Z,99376.42
2023-02-16T17:22:29.252Z,99383.94
2023-02-16T17:25:45.261Z,99381.16
2023-02-16T17:28:59.215Z,99383.84
2023-02-16T17:32:14.519Z,99391.05
2023-02-16T17:35:28.496Z,99385.38
2023-02-16T17:38:43.724Z,99394.54
2023-02-16T17:41:57.726Z,99393.98
2023-02-16T17:45:12.890Z,99392.98
2023-02-16T17:48:31.574Z,99399.11
2023-02-16T17:51:50.558Z,99391.20
2023-02-16T17:55:04.472Z,99392.46
2023-02-16T17:58:19.341Z,99384.27
2023-02-16T18:01:35.424Z,99393.00
2023-02-16T18:04:49.185Z,99391.99
2023-02-16T18:08:04.074Z,99397.24
2023-02-16T18:11:18.097Z,99403.76
2023-02-16T18:14:32.051Z,99399.14
2023-02-16T18:17:47.394Z,99401.92
2023-02-16T18:21:01.746Z,99400.53
2023-02-16T18:24:16.086Z,99395.95
2023-02-16T18:27:30.694Z,99396.73
2023-02-16T18:30:44.833Z,99393.43
2023-02-16T18:33:59.325Z,99408.69
2023-02-16T18:37:13.879Z,99402.25
2023-02-16T18:40:29.111Z,99405.98
2023-02-16T18:43:42.943Z,99402.91
2023-02-16T18:46:57.002Z,99399.86
2023-02-16T18:50:13.136Z,99401.91
2023-02-16T18:53:27.476Z,99402.55
2023-02-16T18:56:42.202Z,99406.27
2023-02-16T18:59:56.821Z,99411.67
2023-02-16T19:03:11.456Z,99415.15
2023-02-16T19:06:26.209Z,99411.09
2023-02-16T19:09:40.435Z,99410.95
2023-02-16T19:12:54.220Z,99411.23
2023-02-16T19:16:11.065Z,99417.59
2023-02-16T19:19:30.074Z,99421.69
2023-02-16T19:22:43.811Z,99417.53
2023-02-16T19:25:57.907Z,99416.78
2023-02-16T19:29:13.475Z,99422.66
2023-02-16T19:32:27.891Z,99416.27
2023-02-16T19:35:42.054Z,99416.27
2023-02-16T19:38:56.104Z,99413.81
2023-02-16T19:42:13.938Z,99405.93
2023-02-16T19:45:28.169Z,99410.81
2023-02-16T19:48:46.728Z,99409.72
2023-02-16T19:52:03.108Z,99409.72
2023-02-16T19:55:19.226Z,99395.87
2023-02-16T19:58:34.212Z,99401.84
2023-02-16T20:01:49.347Z,99406.78
2023-02-16T20:05:06.069Z,99405.93
2023-02-16T20:08:19.801Z,99408.32
2023-02-16T20:11:35.112Z,99410.16
2023-02-16T20:14:51.807Z,99408.83
2023-02-16T20:18:09.112Z,99406.06
2023-02-16T20:21:25.449Z,99404.53
2023-02-16T20:24:40.388Z,99405.75
2023-02-16T20:27:54.399Z,99402.99
2023-02-16T20:31:12.105Z,99410.42
2023-02-16T20:34:29.555Z,99401.32
2023-02-16T20:37:43.517Z,99404.31
2023-02-16T20:40:57.354Z,99397.66
2023-02-16T20:44:11.630Z,99398.16
2023-02-16T20:47:25.699Z,99395.54
2023-02-16T20:50:45.795Z,99405.01
2023-02-16T20:54:02.288Z,99394.13
2023-02-16T20:57:26.386Z,99401.16
2023-02-16T21:00:34.722Z,99402.70
2023-02-16T21:03:51.848Z,99394.00
2023-02-16T21:07:06.010Z,99391.66
2023-02-16T21:10:21.118Z,99385.77
2023-02-16T21:13:35.035Z,99389.97
2023-02-16T21:16:52.449Z,99390.34
2023-02-16T21:20:06.408Z,99386.99
2023-02-16T21:23:20.153Z,99388.21
2023-02-16T21:26:33.867Z,99393.20
2023-02-16T21:29:47.718Z,99394.50
2023-02-16T21:33:01.447Z,99389.98
2023-02-16T21:36:17.956Z,99394.05
2023-02-16T21:39:41.986Z,99383.73
2023-02-16T21:42:56.162Z,99388.30
2023-02-16T21:46:10.166Z,99386.04
2023-02-16T21:49:25.825Z,99384.23
2023-02-16T21:52:39.377Z,99386.63
2023-02-16T21:56:07.652Z,99384.38
2023-02-16T21:59:24.054Z,99386.86
2023-02-16T22:02:39.536Z,99382.96
2023-02-16T22:05:53.582Z,99389.08
2023-02-16T22:09:09.378Z,99389.67
2023-02-16T22:12:23.421Z,99385.23
2023-02-16T22:15:37.590Z,99388.71
2023-02-16T22:18:52.001Z,99388.25
2023-02-16T22:22:05.689Z,99388.63
2023-02-16T22:25:19.913Z,99382.45
2023-02-16T22:28:34.004Z,99382.23
2023-02-16T22:31:50.469Z,99383.57
2023-02-16T22:35:04.543Z,99384.16
2023-02-16T22:38:18.289Z,99381.67
2023-02-16T22:41:31.911Z,99382.75
2023-02-16T22:44:45.932Z,99372.25
2023-02-16T22:47:59.723Z,99379.17
2023-02-16T22:51:15.335Z,99381.92
2023-02-16T22:54:29.079Z,99378.94
2023-02-16T22:57:44.922Z,99381.33
2023-02-16T23:00:58.956Z,99367.85
2023-02-16T23:04:13.002Z,99377.66
2023-02-16T23:07:26.612Z,99373.48
2023-02-16T23:10:40.323Z,99372.63
2023-02-16T23:13:54.074Z,99374.31
2023-02-16T23:17:07.708Z,99379.81
2023-02-16T23:20:21.460Z,99375.61
2023-02-16T23:23:35.021Z,99378.36
2023-02-16T23:26:49.590Z,99383.02
2023-02-16T23:30:03.416Z,99378.14
2023-02-16T23:33:17.484Z,99375.98
2023-02-16T23:36:31.131Z,99380.97
2023-02-16T23:39:44.719Z,99376.45
2023-02-16T23:43:00.204Z,99377.03
2023-02-16T23:46:14.274Z,99386.67
2023-02-16T23:49:27.937Z,99369.30
2023-02-16T23:52:41.561Z,99382.52
2023-02-16T23:56:03.688Z,99375.38
2023-02-16T23:59:17.613Z,99378.73
